createdAt,value
2017-06-23T00:00:11.268Z,58.98
2017-06-23T00:00:37.375Z,59.18
2017-06-23T00:01:03.495Z,59.28
2017-06-23T00:01:29.586Z,59.08
2017-06-23T00:01:55.697Z,59.28
2017-06-23T00:02:21.818Z,59.53
2017-06-23T00:02:47.934Z,59.56
2017-06-23T00:03:14.042Z,58.98
2017-06-23T00:03:40.136Z,59.47
2017-06-23T00:04:06.244Z,58.98
2017-06-23T00:04:32.365Z,59.38
2017-06-23T00:04:58.480Z,59.38
2017-06-23T00:05:24.591Z,60.24
2017-06-23T00:05:50.689Z,59.38
2017-06-23T00:06:16.808Z,60.11
2017-06-23T00:06:42.941Z,59.63
2017-06-23T00:07:09.041Z,59.28
2017-06-23T00:07:35.133Z,59.28
2017-06-23T00:08:01.236Z,60.02
2017-06-23T00:08:27.343Z,60.24
2017-06-23T00:08:53.437Z,59.56
2017-06-23T00:09:19.562Z,60.05
2017-06-23T00:09:45.657Z,60.14
2017-06-23T00:10:11.789Z,60.02
2017-06-23T00:10:37.890Z,59.92
2017-06-23T00:11:03.983Z,60.14
2017-06-23T00:11:30.138Z,59.95
2017-06-23T00:11:56.246Z,59.92
2017-06-23T00:12:22.337Z,59.83
2017-06-23T00:12:48.462Z,59.86
2017-06-23T00:13:14.570Z,59.92
2017-06-23T00:13:40.690Z,60.14
2017-06-23T00:14:06.788Z,59.86
2017-06-23T00:14:32.893Z,59.95
2017-06-23T00:14:58.995Z,59.76
2017-06-23T00:15:25.082Z,59.86
2017-06-23T00:15:51.193Z,59.92
2017-06-23T00:16:17.313Z,59.73
2017-06-23T00:16:43.404Z,59.92
2017-06-23T00:17:09.513Z,60.02
2017-06-23T00:17:35.669Z,60.79
2017-06-23T00:18:01.765Z,60.21
2017-06-23T00:18:27.894Z,59.92
2017-06-23T00:18:54.002Z,60.11
2017-06-23T00:19:20.116Z,60.31
2017-06-23T00:19:46.244Z,60.41
2017-06-23T00:20:12.364Z,60.31
2017-06-23T00:20:38.471Z,60.31
2017-06-23T00:21:04.572Z,60.24
2017-06-23T00:21:30.690Z,59.83
2017-06-23T00:21:56.794Z,59.63
2017-06-23T00:22:22.957Z,60.6
2017-06-23T00:22:49.047Z,60.41
2017-06-23T00:23:15.200Z,61.08
2017-06-23T00:23:41.305Z,60.47
2017-06-23T00:24:07.422Z,61.25
2017-06-23T00:24:33.545Z,61.73
2017-06-23T00:24:59.680Z,61.73
2017-06-23T00:25:25.800Z,61.47
2017-06-23T00:25:51.936Z,61.27
2017-06-23T00:26:18.075Z,61.47
2017-06-23T00:26:44.174Z,60.79
2017-06-23T00:27:10.281Z,60.99
2017-06-23T00:27:36.373Z,61.66
2017-06-23T00:28:02.495Z,61.57
2017-06-23T00:28:28.617Z,61.37
2017-06-23T00:28:54.695Z,61.08
2017-06-23T00:29:20.787Z,61.76
2017-06-23T00:29:46.950Z,61.57
2017-06-23T00:30:13.050Z,61.27
2017-06-23T00:30:39.142Z,61.37
2017-06-23T00:31:05.276Z,61.66
2017-06-23T00:31:31.373Z,61.57
2017-06-23T00:31:57.509Z,61.57
2017-06-23T00:32:23.616Z,61.08
2017-06-23T00:32:49.707Z,61.18
2017-06-23T00:33:15.820Z,61.27
2017-06-23T00:33:41.919Z,61.86
2017-06-23T00:34:08.010Z,61.57
2017-06-23T00:34:34.116Z,61.47
2017-06-23T00:35:00.243Z,61.66
2017-06-23T00:35:26.359Z,60.79
2017-06-23T00:35:52.463Z,61.66
2017-06-23T00:36:18.569Z,61.47
2017-06-23T00:36:44.689Z,61.73
2017-06-23T00:37:10.784Z,61.54
2017-06-23T00:37:36.875Z,61.63
2017-06-23T00:38:02.985Z,61.44
2017-06-23T00:38:29.087Z,61.44
2017-06-23T00:38:55.178Z,62.12
2017-06-23T00:39:21.334Z,62.31
2017-06-23T00:39:47.442Z,61.73
2017-06-23T00:40:13.532Z,61.54
2017-06-23T00:40:39.636Z,61.73
2017-06-23T00:41:05.773Z,62.12
2017-06-23T00:41:31.868Z,62.31
2017-06-23T00:41:57.967Z,61.92
2017-06-23T00:42:24.088Z,62.6
2017-06-23T00:42:50.193Z,62.5
2017-06-23T00:43:16.302Z,62.4
2017-06-23T00:43:42.391Z,62.98
2017-06-23T00:44:08.515Z,62.6
2017-06-23T00:44:34.648Z,62.5
2017-06-23T00:45:00.739Z,62.6
2017-06-23T00:45:26.841Z,62.5
2017-06-23T00:45:52.971Z,62.5
2017-06-23T00:46:19.064Z,62.6
2017-06-23T00:46:45.208Z,62.6
2017-06-23T00:47:11.319Z,62.31
2017-06-23T00:47:37.415Z,61.73
2017-06-23T00:48:03.518Z,62.12
2017-06-23T00:48:29.636Z,61.83
2017-06-23T00:48:55.735Z,62.79
2017-06-23T00:49:21.843Z,62.02
2017-06-23T00:49:47.937Z,61.92
2017-06-23T00:50:14.029Z,62.31
2017-06-23T00:50:40.140Z,62.5
2017-06-23T00:51:06.263Z,62.7
2017-06-23T00:51:32.356Z,62.12
2017-06-23T00:51:58.462Z,61.83
2017-06-23T00:52:24.563Z,61.83
2017-06-23T00:52:50.655Z,61.83
2017-06-23T00:53:16.765Z,61.83
2017-06-23T00:53:42.852Z,62.4
2017-06-23T00:54:08.962Z,62.31
2017-06-23T00:54:35.060Z,62.7
2017-06-23T00:55:01.152Z,62.4
2017-06-23T00:55:27.260Z,62.7
2017-06-23T00:55:53.391Z,62.31
2017-06-23T00:56:19.482Z,62.7
2017-06-23T00:56:45.587Z,62.6
2017-06-23T00:57:11.693Z,62.5
2017-06-23T00:57:37.808Z,62.79
2017-06-23T00:58:03.935Z,62.4
2017-06-23T00:58:30.045Z,62.5
2017-06-23T00:58:56.137Z,62.7
2017-06-23T00:59:22.237Z,62.5
2017-06-23T00:59:48.343Z,62.79
2017-06-23T01:00:14.464Z,62.79
2017-06-23T01:00:40.556Z,62.5
2017-06-23T01:01:06.695Z,62.7
2017-06-23T01:01:32.794Z,62.4
2017-06-23T01:01:58.884Z,63.08
2017-06-23T01:02:24.992Z,63.08
2017-06-23T01:02:51.120Z,63.18
2017-06-23T01:03:17.213Z,62.89
2017-06-23T01:03:43.319Z,62.98
2017-06-23T01:04:09.455Z,62.89
2017-06-23T01:04:35.549Z,63.28
2017-06-23T01:05:01.650Z,62.89
2017-06-23T01:05:27.740Z,62.4
2017-06-23T01:05:53.875Z,62.7
2017-06-23T01:06:19.975Z,62.4
2017-06-23T01:06:46.093Z,63.28
2017-06-23T01:07:12.197Z,63.18
2017-06-23T01:07:38.358Z,62.89
2017-06-23T01:08:04.473Z,62.89
2017-06-23T01:08:30.572Z,62.79
2017-06-23T01:08:56.682Z,63.18
2017-06-23T01:09:22.798Z,62.5
2017-06-23T01:09:48.899Z,62.5
2017-06-23T01:10:14.996Z,62.4
2017-06-23T01:10:41.128Z,62.89
2017-06-23T01:11:07.232Z,62.7
2017-06-23T01:11:33.321Z,62.79
2017-06-23T01:11:59.423Z,62.98
2017-06-23T01:12:25.558Z,62.79
2017-06-23T01:12:51.675Z,62.89
2017-06-23T01:13:17.773Z,63.28
2017-06-23T01:13:43.881Z,62.5
2017-06-23T01:14:09.976Z,63.18
2017-06-23T01:14:36.080Z,62.82
2017-06-23T01:15:02.204Z,62.63
2017-06-23T01:15:28.361Z,62.21
2017-06-23T01:15:54.465Z,62.98
2017-06-23T01:16:20.555Z,62.21
2017-06-23T01:16:46.653Z,62.7
2017-06-23T01:17:12.761Z,62.7
2017-06-23T01:17:38.857Z,62.98
2017-06-23T01:18:04.951Z,63.08
2017-06-23T01:18:31.061Z,63.08
2017-06-23T01:18:57.161Z,63.28
2017-06-23T01:19:23.276Z,62.31
2017-06-23T01:19:49.385Z,62.79
2017-06-23T01:20:15.597Z,62.7
2017-06-23T01:20:41.689Z,62.6
2017-06-23T01:21:07.815Z,62.98
2017-06-23T01:21:33.907Z,62.98
2017-06-23T01:22:00.041Z,62.5
2017-06-23T01:22:26.139Z,63.08
2017-06-23T01:22:52.255Z,62.7
2017-06-23T01:23:18.389Z,62.79
2017-06-23T01:23:44.491Z,62.89
2017-06-23T01:24:10.582Z,62.7
2017-06-23T01:24:36.684Z,63.28
2017-06-23T01:25:02.820Z,63.28
2017-06-23T01:25:28.910Z,62.98
2017-06-23T01:25:55.013Z,62.79
2017-06-23T01:26:21.119Z,62.79
2017-06-23T01:26:47.258Z,62.7
2017-06-23T01:27:13.367Z,62.7
2017-06-23T01:27:39.457Z,62.89
2017-06-23T01:28:05.560Z,62.98
2017-06-23T01:28:31.666Z,62.7
2017-06-23T01:28:57.755Z,63.56
2017-06-23T01:29:23.857Z,62.7
2017-06-23T01:29:49.964Z,62.6
2017-06-23T01:30:16.057Z,62.7
2017-06-23T01:30:42.155Z,62.79
2017-06-23T01:31:08.264Z,62.79
2017-06-23T01:31:34.358Z,62.6
2017-06-23T01:32:00.449Z,62.7
2017-06-23T01:32:26.580Z,63.37
2017-06-23T01:32:52.680Z,62.79
2017-06-23T01:33:18.815Z,62.79
2017-06-23T01:33:44.910Z,62.6
2017-06-23T01:34:11.032Z,62.7
2017-06-23T01:34:37.138Z,62.7
2017-06-23T01:35:03.231Z,62.7
2017-06-23T01:35:29.323Z,62.82
2017-06-23T01:35:55.435Z,63.02
2017-06-23T01:36:21.558Z,62.73
2017-06-23T01:36:47.650Z,62.63
2017-06-23T01:37:13.757Z,62.44
2017-06-23T01:37:39.858Z,62.44
2017-06-23T01:38:05.959Z,62.63
2017-06-23T01:38:32.082Z,62.5
2017-06-23T01:38:58.173Z,63.21
2017-06-23T01:39:24.285Z,62.63
2017-06-23T01:39:50.411Z,63.21
2017-06-23T01:40:16.502Z,63.11
2017-06-23T01:40:42.638Z,63.08
2017-06-23T01:41:08.740Z,62.79
2017-06-23T01:41:34.829Z,63.37
2017-06-23T01:42:00.936Z,63.28
2017-06-23T01:42:27.099Z,63.28
2017-06-23T01:42:53.196Z,63.47
2017-06-23T01:43:19.341Z,63.47
2017-06-23T01:43:45.450Z,63.37
2017-06-23T01:44:11.567Z,62.98
2017-06-23T01:44:37.694Z,63.18
2017-06-23T01:45:03.829Z,63.37
2017-06-23T01:45:29.930Z,63.18
2017-06-23T01:45:56.019Z,63.18
2017-06-23T01:46:22.154Z,63.18
2017-06-23T01:46:48.279Z,63.76
2017-06-23T01:47:14.371Z,63.76
2017-06-23T01:47:40.479Z,63.37
2017-06-23T01:48:06.580Z,63.37
2017-06-23T01:48:32.672Z,62.73
2017-06-23T01:48:58.798Z,63.08
2017-06-23T01:49:24.890Z,63.66
2017-06-23T01:49:51.000Z,63.56
2017-06-23T01:50:17.127Z,64.14
2017-06-23T01:50:43.221Z,64.05
2017-06-23T01:51:09.328Z,64.05
2017-06-23T01:51:35.433Z,64.14
2017-06-23T01:52:01.571Z,64.14
2017-06-23T01:52:27.676Z,64.24
2017-06-23T01:52:53.784Z,63.76
2017-06-23T01:53:19.873Z,63.66
2017-06-23T01:53:45.973Z,63.66
2017-06-23T01:54:12.109Z,63.85
2017-06-23T01:54:38.202Z,64.14
2017-06-23T01:55:04.306Z,64.24
2017-06-23T01:55:30.398Z,63.47
2017-06-23T01:55:56.503Z,63.66
2017-06-23T01:56:22.607Z,63.95
2017-06-23T01:56:48.694Z,63.66
2017-06-23T01:57:14.797Z,63.76
2017-06-23T01:57:40.932Z,63.66
2017-06-23T01:58:07.024Z,63.66
2017-06-23T01:58:33.121Z,63.56
2017-06-23T01:58:59.256Z,63.56
2017-06-23T01:59:25.351Z,63.47
2017-06-23T01:59:51.443Z,63.56
2017-06-23T02:00:17.576Z,63.66
2017-06-23T02:00:43.675Z,63.66
2017-06-23T02:01:09.783Z,63.66
2017-06-23T02:01:35.874Z,64.05
2017-06-23T02:02:02.025Z,63.85
2017-06-23T02:02:28.131Z,63.76
2017-06-23T02:02:54.226Z,63.28
2017-06-23T02:03:20.342Z,63.66
2017-06-23T02:03:46.479Z,63.76
2017-06-23T02:04:12.577Z,63.47
2017-06-23T02:04:38.694Z,63.18
2017-06-23T02:05:04.802Z,63.66
2017-06-23T02:05:30.933Z,63.66
2017-06-23T02:05:57.059Z,63.47
2017-06-23T02:06:23.183Z,63.28
2017-06-23T02:06:49.296Z,63.66
2017-06-23T02:07:15.432Z,63.28
2017-06-23T02:07:41.530Z,63.28
2017-06-23T02:08:07.622Z,63.76
2017-06-23T02:08:33.757Z,63.95
2017-06-23T02:08:59.858Z,64.24
2017-06-23T02:09:26.001Z,63.85
2017-06-23T02:09:52.106Z,63.76
2017-06-23T02:10:18.240Z,63.76
2017-06-23T02:10:44.326Z,63.28
2017-06-23T02:11:10.429Z,63.85
2017-06-23T02:11:36.546Z,63.66
2017-06-23T02:12:02.655Z,63.28
2017-06-23T02:12:28.785Z,63.76
2017-06-23T02:12:54.877Z,63.18
2017-06-23T02:13:20.980Z,63.66
2017-06-23T02:13:47.086Z,63.85
2017-06-23T02:14:13.175Z,63.76
2017-06-23T02:14:39.297Z,63.66
2017-06-23T02:15:05.410Z,64.14
2017-06-23T02:15:31.517Z,63.66
2017-06-23T02:15:57.619Z,63.76
2017-06-23T02:16:23.735Z,64.43
2017-06-23T02:16:49.863Z,63.95
2017-06-23T02:17:15.954Z,64.63
2017-06-23T02:17:42.092Z,64.63
2017-06-23T02:18:08.189Z,64.24
2017-06-23T02:18:34.282Z,64.72
2017-06-23T02:19:00.388Z,64.34
2017-06-23T02:19:26.515Z,64.43
2017-06-23T02:19:52.630Z,64.05
2017-06-23T02:20:18.760Z,64.63
2017-06-23T02:20:44.868Z,63.85
2017-06-23T02:21:10.959Z,64.34
2017-06-23T02:21:37.083Z,64.24
2017-06-23T02:22:03.192Z,63.47
2017-06-23T02:22:29.333Z,63.76
2017-06-23T02:22:55.436Z,63.76
2017-06-23T02:23:21.527Z,64.34
2017-06-23T02:23:47.631Z,64.14
2017-06-23T02:24:13.739Z,64.34
2017-06-23T02:24:39.829Z,63.85
2017-06-23T02:25:05.952Z,64.34
2017-06-23T02:25:32.061Z,64.63
2017-06-23T02:25:58.178Z,64.63
2017-06-23T02:26:24.277Z,64.34
2017-06-23T02:26:50.380Z,63.95
2017-06-23T02:27:16.477Z,64.53
2017-06-23T02:27:42.594Z,64.34
2017-06-23T02:28:08.705Z,64.53
2017-06-23T02:28:34.803Z,64.43
2017-06-23T02:29:00.921Z,64.63
2017-06-23T02:29:27.059Z,64.24
2017-06-23T02:29:53.158Z,64.34
2017-06-23T02:30:19.277Z,64.34
2017-06-23T02:30:45.382Z,64.24
2017-06-23T02:31:11.491Z,64.24
2017-06-23T02:31:37.579Z,64.72
2017-06-23T02:32:03.679Z,64.72
2017-06-23T02:32:29.811Z,64.14
2017-06-23T02:32:55.905Z,64.34
2017-06-23T02:33:22.026Z,64.24
2017-06-23T02:33:48.125Z,64.43
2017-06-23T02:34:14.230Z,64.72
2017-06-23T02:34:40.338Z,64.24
2017-06-23T02:35:06.427Z,63.95
2017-06-23T02:35:32.528Z,64.63
2017-06-23T02:35:58.690Z,64.53
2017-06-23T02:36:24.805Z,64.24
2017-06-23T02:36:50.925Z,64.14
2017-06-23T02:37:17.059Z,64.43
2017-06-23T02:37:43.186Z,64.24
2017-06-23T02:38:09.275Z,64.21
2017-06-23T02:38:35.414Z,64.53
2017-06-23T02:39:01.513Z,64.89
2017-06-23T02:39:27.616Z,64.5
2017-06-23T02:39:53.734Z,64.59
2017-06-23T02:40:19.883Z,64.63
2017-06-23T02:40:45.991Z,64.53
2017-06-23T02:41:12.113Z,64.72
2017-06-23T02:41:38.203Z,63.95
2017-06-23T02:42:04.314Z,64.14
2017-06-23T02:42:30.435Z,63.73
2017-06-23T02:42:56.552Z,64.4
2017-06-23T02:43:22.660Z,64.4
2017-06-23T02:43:48.761Z,64.31
2017-06-23T02:44:14.854Z,64.4
2017-06-23T02:44:40.962Z,64.21
2017-06-23T02:45:07.128Z,64.31
2017-06-23T02:45:33.265Z,64.31
2017-06-23T02:45:59.364Z,64.69
2017-06-23T02:46:25.456Z,65.05
2017-06-23T02:46:51.591Z,64.95
2017-06-23T02:47:17.689Z,65.43
2017-06-23T02:47:43.806Z,65.63
2017-06-23T02:48:09.912Z,65.43
2017-06-23T02:48:36.030Z,65.34
2017-06-23T02:49:02.161Z,65.72
2017-06-23T02:49:28.262Z,66.2
2017-06-23T02:49:54.370Z,66.3
2017-06-23T02:50:20.484Z,66.49
2017-06-23T02:50:46.582Z,66.59
2017-06-23T02:51:12.689Z,66.49
2017-06-23T02:51:38.784Z,66.49
2017-06-23T02:52:04.877Z,67.27
2017-06-23T02:52:31.016Z,66.78
2017-06-23T02:52:57.112Z,66.97
2017-06-23T02:53:23.204Z,66.97
2017-06-23T02:53:49.310Z,66.78
2017-06-23T02:54:15.439Z,66.78
2017-06-23T02:54:41.532Z,67.07
2017-06-23T02:55:07.657Z,67.07
2017-06-23T02:55:33.765Z,67.27
2017-06-23T02:55:59.859Z,66.49
2017-06-23T02:56:25.985Z,66.97
2017-06-23T02:56:52.075Z,67.52
2017-06-23T02:57:18.182Z,67.85
2017-06-23T02:57:44.307Z,67.52
2017-06-23T02:58:10.424Z,67.43
2017-06-23T02:58:36.528Z,67.14
2017-06-23T02:59:02.690Z,67.52
2017-06-23T02:59:28.804Z,68.01
2017-06-23T02:59:54.926Z,68.29
2017-06-23T03:00:21.062Z,68.01
2017-06-23T03:00:47.151Z,67.91
2017-06-23T03:01:13.251Z,67.91
2017-06-23T03:01:39.344Z,68.29
2017-06-23T03:02:05.449Z,68.29
2017-06-23T03:02:31.555Z,67.91
2017-06-23T03:02:57.670Z,68.01
2017-06-23T03:03:23.774Z,68.29
2017-06-23T03:03:49.880Z,68.19
2017-06-23T03:04:15.971Z,67.91
2017-06-23T03:04:42.094Z,67.91
2017-06-23T03:05:08.226Z,68.49
2017-06-23T03:05:34.320Z,68.49
2017-06-23T03:06:00.437Z,68.1
2017-06-23T03:06:26.570Z,68.19
2017-06-23T03:06:52.694Z,68.1
2017-06-23T03:07:18.798Z,68.01
2017-06-23T03:07:44.891Z,67.81
2017-06-23T03:08:10.990Z,67.91
2017-06-23T03:08:37.095Z,68.01
2017-06-23T03:09:03.194Z,68.1
2017-06-23T03:09:29.308Z,68.01
2017-06-23T03:09:55.419Z,68.39
2017-06-23T03:10:21.517Z,68.19
2017-06-23T03:10:47.609Z,67.33
2017-06-23T03:11:13.745Z,67.33
2017-06-23T03:11:40.174Z,68.39
2017-06-23T03:12:06.266Z,68.33
2017-06-23T03:12:32.372Z,68.19
2017-06-23T03:12:58.504Z,68.39
2017-06-23T03:13:24.593Z,68.19
2017-06-23T03:13:50.695Z,68.29
2017-06-23T03:14:16.803Z,68.01
2017-06-23T03:14:42.919Z,67.91
2017-06-23T03:15:09.018Z,67.91
2017-06-23T03:15:35.126Z,67.91
2017-06-23T03:16:01.247Z,68.01
2017-06-23T03:16:27.364Z,68.01
2017-06-23T03:16:53.473Z,68.01
2017-06-23T03:17:19.571Z,68.01
2017-06-23T03:17:45.711Z,68.01
2017-06-23T03:18:11.820Z,68.29
2017-06-23T03:18:37.912Z,68.01
2017-06-23T03:19:04.020Z,68.19
2017-06-23T03:19:30.115Z,68.29
2017-06-23T03:19:56.230Z,68.49
2017-06-23T03:20:22.366Z,68.77
2017-06-23T03:20:48.464Z,68.49
2017-06-23T03:21:14.555Z,68.77
2017-06-23T03:21:40.663Z,69.07
2017-06-23T03:22:06.793Z,68.97
2017-06-23T03:22:32.910Z,68.68
2017-06-23T03:22:59.044Z,68.59
2017-06-23T03:23:25.206Z,68.87
2017-06-23T03:23:51.356Z,68.77
2017-06-23T03:24:17.455Z,69.03
2017-06-23T03:24:43.573Z,68.84
2017-06-23T03:25:09.682Z,68.93
2017-06-23T03:25:35.809Z,69.32
2017-06-23T03:26:01.927Z,69.32
2017-06-23T03:26:28.030Z,69.03
2017-06-23T03:26:54.169Z,69.51
2017-06-23T03:27:20.258Z,69.9
2017-06-23T03:27:46.359Z,69.61
2017-06-23T03:28:12.493Z,69.42
2017-06-23T03:28:38.614Z,69.55
2017-06-23T03:29:04.711Z,69.8
2017-06-23T03:29:30.809Z,69.51
2017-06-23T03:29:56.962Z,69.51
2017-06-23T03:30:23.070Z,69.51
2017-06-23T03:30:49.183Z,69.32
2017-06-23T03:31:15.286Z,69.9
2017-06-23T03:31:41.391Z,69.32
2017-06-23T03:32:07.483Z,69.23
2017-06-23T03:32:33.582Z,70
2017-06-23T03:32:59.690Z,69.9
2017-06-23T03:33:25.810Z,69.61
2017-06-23T03:33:51.903Z,69.71
2017-06-23T03:34:18.014Z,69.8
2017-06-23T03:34:44.110Z,69.61
2017-06-23T03:35:10.214Z,69.9
2017-06-23T03:35:36.308Z,70.09
2017-06-23T03:36:02.430Z,70.28
2017-06-23T03:36:28.538Z,70
2017-06-23T03:36:54.632Z,70.86
2017-06-23T03:37:20.722Z,70.67
2017-06-23T03:37:46.833Z,69.71
2017-06-23T03:38:12.933Z,70.76
2017-06-23T03:38:39.024Z,70
2017-06-23T03:39:05.132Z,70.09
2017-06-23T03:39:31.234Z,70.09
2017-06-23T03:39:57.326Z,69.8
2017-06-23T03:40:23.430Z,70
2017-06-23T03:40:49.522Z,70.48
2017-06-23T03:41:15.630Z,70.19
2017-06-23T03:41:41.728Z,69.51
2017-06-23T03:42:08.195Z,69.8
2017-06-23T03:42:34.330Z,69.71
2017-06-23T03:43:00.457Z,69.9
2017-06-23T03:43:26.573Z,70.09
2017-06-23T03:43:52.679Z,69.71
2017-06-23T03:44:18.787Z,69.71
2017-06-23T03:44:44.901Z,69.61
2017-06-23T03:45:11.005Z,69.71
2017-06-23T03:45:37.113Z,69.9
2017-06-23T03:46:03.228Z,69.9
2017-06-23T03:46:29.334Z,69.9
2017-06-23T03:46:55.424Z,69.32
2017-06-23T03:47:21.527Z,69.71
2017-06-23T03:47:47.662Z,69.51
2017-06-23T03:48:13.775Z,69.8
2017-06-23T03:48:39.878Z,69.42
2017-06-23T03:49:06.011Z,69.51
2017-06-23T03:49:32.103Z,69.51
2017-06-23T03:49:58.201Z,69.42
2017-06-23T03:50:24.308Z,69.51
2017-06-23T03:50:50.405Z,69.13
2017-06-23T03:51:16.495Z,69.61
2017-06-23T03:51:42.626Z,69.51
2017-06-23T03:52:08.751Z,69.23
2017-06-23T03:52:34.859Z,68.93
2017-06-23T03:53:00.952Z,68.84
2017-06-23T03:53:27.051Z,69.03
2017-06-23T03:53:53.157Z,68.65
2017-06-23T03:54:19.252Z,69.13
2017-06-23T03:54:45.345Z,69.51
2017-06-23T03:55:11.454Z,69.23
2017-06-23T03:55:37.630Z,68.55
2017-06-23T03:56:03.723Z,68.93
2017-06-23T03:56:29.827Z,69.42
2017-06-23T03:56:55.927Z,69.61
2017-06-23T03:57:22.018Z,69.51
2017-06-23T03:57:48.122Z,69.51
2017-06-23T03:58:14.225Z,68.93
2017-06-23T03:58:40.309Z,68.93
2017-06-23T03:59:06.410Z,68.45
2017-06-23T03:59:32.546Z,68.84
2017-06-23T03:59:58.638Z,68.84
2017-06-23T04:00:24.734Z,69.23
2017-06-23T04:00:50.870Z,68.84
2017-06-23T04:01:16.963Z,68.93
2017-06-23T04:01:43.056Z,68.93
2017-06-23T04:02:09.194Z,68.84
2017-06-23T04:02:35.290Z,68.93
2017-06-23T04:03:01.396Z,68.65
2017-06-23T04:03:27.512Z,68.74
2017-06-23T04:03:53.634Z,68.84
2017-06-23T04:04:19.768Z,69.03
2017-06-23T04:04:45.863Z,69.03
2017-06-23T04:05:11.960Z,68.65
2017-06-23T04:05:38.144Z,68.74
2017-06-23T04:06:04.270Z,69.03
2017-06-23T04:06:30.411Z,69.03
2017-06-23T04:06:56.518Z,69.03
2017-06-23T04:07:22.721Z,69.03
2017-06-23T04:07:48.813Z,68.65
2017-06-23T04:08:14.919Z,68.65
2017-06-23T04:08:41.008Z,68.84
2017-06-23T04:09:07.116Z,68.65
2017-06-23T04:09:33.215Z,68.74
2017-06-23T04:09:59.309Z,69.23
2017-06-23T04:10:25.413Z,69.03
2017-06-23T04:10:51.512Z,68.93
2017-06-23T04:11:17.603Z,68.84
2017-06-23T04:11:43.736Z,68.65
2017-06-23T04:12:10.223Z,68.74
2017-06-23T04:12:36.314Z,68.55
2017-06-23T04:13:02.414Z,68.55
2017-06-23T04:13:28.521Z,68.55
2017-06-23T04:13:54.614Z,68.35
2017-06-23T04:14:20.742Z,68.49
2017-06-23T04:14:46.834Z,68.45
2017-06-23T04:15:12.937Z,68.45
2017-06-23T04:15:39.044Z,68.29
2017-06-23T04:16:05.134Z,68.45
2017-06-23T04:16:31.239Z,68.29
2017-06-23T04:16:57.400Z,68.55
2017-06-23T04:17:23.493Z,68.93
2017-06-23T04:17:49.591Z,68.26
2017-06-23T04:18:15.697Z,68.55
2017-06-23T04:18:41.790Z,68.65
2017-06-23T04:19:07.883Z,68.45
2017-06-23T04:19:33.988Z,68.01
2017-06-23T04:20:00.089Z,68.1
2017-06-23T04:20:26.199Z,68.19
2017-06-23T04:20:52.290Z,68.1
2017-06-23T04:21:18.383Z,68.01
2017-06-23T04:21:44.546Z,68.1
2017-06-23T04:22:10.665Z,67.52
2017-06-23T04:22:36.781Z,67.14
2017-06-23T04:23:02.894Z,67.62
2017-06-23T04:23:29.020Z,67.62
2017-06-23T04:23:55.110Z,67.43
2017-06-23T04:24:21.218Z,67.33
2017-06-23T04:24:47.377Z,67.52
2017-06-23T04:25:13.477Z,67.62
2017-06-23T04:25:39.574Z,67.71
2017-06-23T04:26:05.665Z,67.81
2017-06-23T04:26:31.802Z,68.19
2017-06-23T04:26:57.900Z,68.19
2017-06-23T04:27:24.016Z,67.97
2017-06-23T04:27:50.123Z,67.88
2017-06-23T04:28:16.225Z,68.16
2017-06-23T04:28:42.339Z,68.1
2017-06-23T04:29:08.497Z,68.07
2017-06-23T04:29:34.606Z,68.29
2017-06-23T04:30:00.717Z,67.91
2017-06-23T04:30:26.819Z,67.52
2017-06-23T04:30:52.914Z,67.71
2017-06-23T04:31:19.021Z,68.39
2017-06-23T04:31:45.120Z,67.91
2017-06-23T04:32:11.211Z,67.43
2017-06-23T04:32:37.316Z,67.52
2017-06-23T04:33:03.422Z,67.62
2017-06-23T04:33:29.513Z,67.52
2017-06-23T04:33:55.640Z,67.23
2017-06-23T04:34:21.776Z,67.33
2017-06-23T04:34:47.869Z,67.52
2017-06-23T04:35:13.968Z,67.33
2017-06-23T04:35:40.077Z,67.43
2017-06-23T04:36:06.203Z,67.33
2017-06-23T04:36:32.330Z,67.52
2017-06-23T04:36:58.415Z,67.43
2017-06-23T04:37:24.517Z,67.81
2017-06-23T04:37:50.624Z,67.52
2017-06-23T04:38:18.888Z,67.71
2017-06-23T04:38:43.824Z,67.23
2017-06-23T04:39:09.933Z,67.33
2017-06-23T04:39:36.042Z,67.14
2017-06-23T04:40:02.143Z,66.94
2017-06-23T04:40:28.253Z,66.85
2017-06-23T04:40:54.353Z,67.14
2017-06-23T04:41:20.441Z,66.85
2017-06-23T04:41:46.605Z,66.3
2017-06-23T04:42:12.706Z,66.59
2017-06-23T04:42:38.796Z,65.63
2017-06-23T04:43:04.901Z,65.82
2017-06-23T04:43:31.065Z,65.08
2017-06-23T04:43:57.154Z,64.01
2017-06-23T04:44:23.253Z,64.21
2017-06-23T04:44:49.361Z,64.34
2017-06-23T04:45:15.450Z,64.05
2017-06-23T04:45:41.571Z,62.6
2017-06-23T04:46:07.678Z,62.79
2017-06-23T04:46:33.801Z,63.18
2017-06-23T04:46:59.917Z,62.24
2017-06-23T04:47:26.045Z,61.66
2017-06-23T04:47:52.145Z,61.69
2017-06-23T04:48:18.254Z,60.92
2017-06-23T04:48:44.344Z,60.44
2017-06-23T04:49:10.466Z,59.95
2017-06-23T04:49:36.574Z,59.95
2017-06-23T04:50:02.671Z,60.05
2017-06-23T04:50:28.764Z,60.08
2017-06-23T04:50:54.874Z,59.08
2017-06-23T04:51:20.997Z,59.21
2017-06-23T04:51:47.091Z,58.82
2017-06-23T04:52:13.199Z,58.37
2017-06-23T04:52:39.329Z,57.69
2017-06-23T04:53:05.453Z,57.04
2017-06-23T04:53:31.552Z,57.04
2017-06-23T04:53:57.670Z,56.26
2017-06-23T04:54:23.781Z,56.75
2017-06-23T04:54:49.880Z,56.65
2017-06-23T04:55:15.975Z,56.2
2017-06-23T04:55:42.102Z,56.2
2017-06-23T04:56:08.233Z,56.2
2017-06-23T04:56:34.351Z,55.71
2017-06-23T04:57:00.482Z,55.52
2017-06-23T04:57:26.590Z,55.04
2017-06-23T04:57:52.680Z,55.16
2017-06-23T04:58:18.783Z,54.38
2017-06-23T04:58:44.878Z,54.28
2017-06-23T04:59:10.987Z,54.19
2017-06-23T04:59:37.086Z,54.09
2017-06-23T05:00:03.178Z,53.99
2017-06-23T05:00:29.285Z,53.7
2017-06-23T05:00:55.392Z,53.34
2017-06-23T05:01:21.506Z,53.44
2017-06-23T05:01:47.630Z,52.86
2017-06-23T05:02:13.767Z,52.66
2017-06-23T05:02:39.861Z,52.98
2017-06-23T05:03:05.961Z,52.2
2017-06-23T05:03:32.069Z,51.62
2017-06-23T05:03:58.192Z,52.56
2017-06-23T05:04:24.322Z,52.93
2017-06-23T05:04:50.411Z,53.31
2017-06-23T05:05:16.511Z,53.99
2017-06-23T05:05:42.619Z,54.06
2017-06-23T05:06:08.737Z,54.84
2017-06-23T05:06:34.838Z,54.84
2017-06-23T05:07:00.972Z,55.78
2017-06-23T05:07:27.067Z,55.98
2017-06-23T05:07:53.308Z,56.16
2017-06-23T05:08:19.419Z,56.26
2017-06-23T05:08:45.520Z,56.65
2017-06-23T05:09:11.614Z,56.52
2017-06-23T05:09:37.722Z,56.34
2017-06-23T05:10:03.818Z,56.92
2017-06-23T05:10:29.953Z,56.72
2017-06-23T05:10:56.047Z,56.36
2017-06-23T05:11:22.167Z,56.46
2017-06-23T05:11:48.327Z,56.65
2017-06-23T05:12:14.428Z,56.43
2017-06-23T05:12:40.520Z,57.11
2017-06-23T05:13:06.656Z,57.08
2017-06-23T05:13:32.757Z,57.08
2017-06-23T05:13:58.848Z,57.66
2017-06-23T05:14:24.954Z,57.76
2017-06-23T05:14:51.063Z,57.95
2017-06-23T05:15:17.159Z,57.66
2017-06-23T05:15:43.257Z,57.95
2017-06-23T05:16:09.348Z,57.37
2017-06-23T05:16:35.457Z,56.98
2017-06-23T05:17:01.561Z,57.28
2017-06-23T05:17:27.652Z,57.37
2017-06-23T05:17:53.808Z,57.66
2017-06-23T05:18:19.918Z,57.37
2017-06-23T05:18:46.008Z,57.3
2017-06-23T05:19:12.135Z,57.2
2017-06-23T05:19:38.243Z,57.11
2017-06-23T05:20:04.409Z,56.34
2017-06-23T05:20:30.532Z,56.24
2017-06-23T05:20:56.632Z,56.14
2017-06-23T05:21:22.790Z,56.26
2017-06-23T05:21:48.924Z,56.07
2017-06-23T05:22:15.020Z,56.07
2017-06-23T05:22:41.121Z,55.88
2017-06-23T05:23:07.255Z,56.26
2017-06-23T05:23:33.379Z,55.88
2017-06-23T05:23:59.477Z,55.94
2017-06-23T05:24:25.585Z,56.24
2017-06-23T05:24:51.707Z,56.24
2017-06-23T05:25:17.824Z,55.85
2017-06-23T05:25:43.964Z,56.62
2017-06-23T05:26:10.064Z,56.04
2017-06-23T05:26:36.157Z,56.14
2017-06-23T05:27:02.264Z,56.62
2017-06-23T05:27:28.394Z,56.4
2017-06-23T05:27:54.536Z,56.82
2017-06-23T05:28:20.640Z,56.98
2017-06-23T05:28:46.775Z,56.98
2017-06-23T05:29:12.868Z,56.88
2017-06-23T05:29:39.018Z,57.46
2017-06-23T05:30:05.128Z,56.98
2017-06-23T05:30:31.274Z,57.18
2017-06-23T05:30:57.372Z,57.18
2017-06-23T05:31:23.481Z,57.46
2017-06-23T05:31:49.578Z,57.28
2017-06-23T05:32:15.714Z,57.18
2017-06-23T05:32:41.799Z,57.28
2017-06-23T05:33:07.953Z,57.56
2017-06-23T05:33:34.089Z,57.37
2017-06-23T05:34:00.182Z,57.18
2017-06-23T05:34:26.308Z,57.46
2017-06-23T05:34:52.413Z,57.37
2017-06-23T05:35:18.508Z,57.28
2017-06-23T05:35:44.600Z,57.86
2017-06-23T05:36:10.739Z,57.56
2017-06-23T05:36:36.836Z,58.34
2017-06-23T05:37:02.931Z,58.14
2017-06-23T05:37:29.040Z,57.92
2017-06-23T05:37:55.136Z,57.76